Aviation Digital Data Service (ADDS)

Output produced by TAFs form (1609 UTC 30 July 2015)
found at http://www.aviationweather.gov/adds/tafs/
 
KABE 301506Z 3015/3112 23008KT P6SM BKN020 OVC045 
     FM301700 24008KT P6SM SCT025 BKN045 
     TEMPO 3017/3021 2SM TSRA BR BKN025CB 
     FM302200 26007KT P6SM SCT250 
     FM310200 VRB03KT P6SM SKC